sensor_id;sensor_type;location;lat;lon;timestamp;P1;durP1;ratioP1;P2;durP2;ratioP2
16892;SDS011;8563;52.242;9.098;2023-07-28T00:02:28;2.15;;;1.95;;
16892;SDS011;8563;52.242;9.098;2023-07-28T00:05:04;2.33;;;2.10;;
16892;SDS011;8563;52.242;9.098;2023-07-28T00:07:38;2.20;;;2.00;;
16892;SDS011;8563;52.242;9.098;2023-07-28T00:10:12;2.10;;;1.90;;
16892;SDS011;8563;52.242;9.098;2023-07-28T00:12:46;2.63;;;1.90;;
16892;SDS011;8563;52.242;9.098;2023-07-28T00:15:19;2.97;;;1.87;;
16892;SDS011;8563;52.242;9.098;2023-07-28T00:17:52;2.08;;;1.60;;
16892;SDS011;8563;52.242;9.098;2023-07-28T00:23:32;2.17;;;1.50;;
16892;SDS011;8563;52.242;9.098;2023-07-28T00:26:06;2.53;;;1.70;;
16892;SDS011;8563;52.242;9.098;2023-07-28T00:28:39;2.40;;;1.65;;
16892;SDS011;8563;52.242;9.098;2023-07-28T00:31:13;6.10;;;2.00;;
16892;SDS011;8563;52.242;9.098;2023-07-28T00:33:53;2.00;;;1.77;;
16892;SDS011;8563;52.242;9.098;2023-07-28T00:36:28;3.60;;;1.80;;
16892;SDS011;8563;52.242;9.098;2023-07-28T00:39:03;2.90;;;1.87;;
16892;SDS011;8563;52.242;9.098;2023-07-28T00:41:37;2.53;;;1.87;;
16892;SDS011;8563;52.242;9.098;2023-07-28T00:44:10;1.60;;;1.40;;
16892;SDS011;8563;52.242;9.098;2023-07-28T00:46:45;1.48;;;1.30;;
16892;SDS011;8563;52.242;9.098;2023-07-28T00:49:17;2.03;;;1.40;;
16892;SDS011;8563;52.242;9.098;2023-07-28T00:51:51;2.40;;;1.13;;
16892;SDS011;8563;52.242;9.098;2023-07-28T00:54:27;1.50;;;1.40;;
16892;SDS011;8563;52.242;9.098;2023-07-28T00:57:06;1.55;;;1.45;;
16892;SDS011;8563;52.242;9.098;2023-07-28T00:59:40;2.40;;;1.33;;
16892;SDS011;8563;52.242;9.098;2023-07-28T01:02:17;2.83;;;1.60;;
16892;SDS011;8563;52.242;9.098;2023-07-28T01:04:51;2.22;;;1.55;;
16892;SDS011;8563;52.242;9.098;2023-07-28T01:07:26;2.22;;;1.50;;
16892;SDS011;8563;52.242;9.098;2023-07-28T01:10:05;2.92;;;1.60;;
16892;SDS011;8563;52.242;9.098;2023-07-28T01:12:38;2.25;;;1.60;;
16892;SDS011;8563;52.242;9.098;2023-07-28T01:15:11;1.83;;;1.50;;
16892;SDS011;8563;52.242;9.098;2023-07-28T01:17:48;2.10;;;1.75;;
16892;SDS011;8563;52.242;9.098;2023-07-28T01:20:21;2.38;;;2.13;;
16892;SDS011;8563;52.242;9.098;2023-07-28T01:23:05;1.70;;;1.50;;
16892;SDS011;8563;52.242;9.098;2023-07-28T01:25:47;2.30;;;1.67;;
16892;SDS011;8563;52.242;9.098;2023-07-28T01:28:23;2.35;;;1.98;;
16892;SDS011;8563;52.242;9.098;2023-07-28T01:30:56;2.90;;;1.95;;
16892;SDS011;8563;52.242;9.098;2023-07-28T01:33:30;3.33;;;2.10;;
16892;SDS011;8563;52.242;9.098;2023-07-28T01:36:03;2.80;;;2.13;;
16892;SDS011;8563;52.242;9.098;2023-07-28T01:38:39;1.75;;;1.65;;
16892;SDS011;8563;52.242;9.098;2023-07-28T01:41:13;2.78;;;1.92;;
16892;SDS011;8563;52.242;9.098;2023-07-28T01:43:49;2.50;;;2.30;;
16892;SDS011;8563;52.242;9.098;2023-07-28T01:46:26;2.30;;;2.10;;
16892;SDS011;8563;52.242;9.098;2023-07-28T01:49:01;2.85;;;1.73;;
16892;SDS011;8563;52.242;9.098;2023-07-28T01:51:41;2.88;;;2.33;;
16892;SDS011;8563;52.242;9.098;2023-07-28T01:54:14;2.40;;;1.90;;
16892;SDS011;8563;52.242;9.098;2023-07-28T01:56:50;2.10;;;1.90;;
16892;SDS011;8563;52.242;9.098;2023-07-28T01:59:24;2.92;;;2.00;;
16892;SDS011;8563;52.242;9.098;2023-07-28T02:01:58;3.92;;;2.38;;
16892;SDS011;8563;52.242;9.098;2023-07-28T02:04:31;2.58;;;2.20;;
16892;SDS011;8563;52.242;9.098;2023-07-28T02:07:04;2.30;;;2.10;;
16892;SDS011;8563;52.242;9.098;2023-07-28T02:09:38;2.40;;;2.10;;
16892;SDS011;8563;52.242;9.098;2023-07-28T02:12:12;2.85;;;2.38;;
16892;SDS011;8563;52.242;9.098;2023-07-28T02:14:47;2.10;;;1.88;;
16892;SDS011;8563;52.242;9.098;2023-07-28T02:17:20;2.30;;;2.05;;
16892;SDS011;8563;52.242;9.098;2023-07-28T02:19:55;2.97;;;2.08;;
16892;SDS011;8563;52.242;9.098;2023-07-28T02:22:29;2.20;;;1.90;;
16892;SDS011;8563;52.242;9.098;2023-07-28T02:25:03;3.17;;;2.03;;
16892;SDS011;8563;52.242;9.098;2023-07-28T02:27:36;1.80;;;1.52;;
16892;SDS011;8563;52.242;9.098;2023-07-28T02:30:12;3.22;;;1.88;;
16892;SDS011;8563;52.242;9.098;2023-07-28T02:32:48;3.83;;;2.17;;
16892;SDS011;8563;52.242;9.098;2023-07-28T02:35:22;2.78;;;2.30;;
16892;SDS011;8563;52.242;9.098;2023-07-28T02:37:57;3.47;;;1.77;;
16892;SDS011;8563;52.242;9.098;2023-07-28T02:40:30;3.03;;;1.80;;
16892;SDS011;8563;52.242;9.098;2023-07-28T02:43:05;2.55;;;1.50;;
16892;SDS011;8563;52.242;9.098;2023-07-28T02:46:14;1.65;;;1.55;;
16892;SDS011;8563;52.242;9.098;2023-07-28T02:48:48;2.55;;;2.13;;
16892;SDS011;8563;52.242;9.098;2023-07-28T02:51:21;1.90;;;1.63;;
16892;SDS011;8563;52.242;9.098;2023-07-28T02:53:54;2.85;;;1.70;;
16892;SDS011;8563;52.242;9.098;2023-07-28T02:56:28;3.85;;;2.08;;
16892;SDS011;8563;52.242;9.098;2023-07-28T02:59:09;2.72;;;1.50;;
16892;SDS011;8563;52.242;9.098;2023-07-28T03:01:46;2.28;;;1.70;;
16892;SDS011;8563;52.242;9.098;2023-07-28T03:04:22;3.95;;;1.38;;
16892;SDS011;8563;52.242;9.098;2023-07-28T03:07:23;1.60;;;1.50;;
16892;SDS011;8563;52.242;9.098;2023-07-28T03:10:02;3.25;;;1.15;;
16892;SDS011;8563;52.242;9.098;2023-07-28T03:12:38;1.45;;;1.27;;
16892;SDS011;8563;52.242;9.098;2023-07-28T03:15:12;2.10;;;1.48;;
16892;SDS011;8563;52.242;9.098;2023-07-28T03:17:47;1.48;;;1.38;;
16892;SDS011;8563;52.242;9.098;2023-07-28T03:20:21;2.13;;;1.30;;
16892;SDS011;8563;52.242;9.098;2023-07-28T03:22:57;2.00;;;1.15;;
16892;SDS011;8563;52.242;9.098;2023-07-28T03:25:30;1.67;;;1.15;;
16892;SDS011;8563;52.242;9.098;2023-07-28T03:28:05;2.22;;;1.45;;
16892;SDS011;8563;52.242;9.098;2023-07-28T03:30:39;1.40;;;1.00;;
16892;SDS011;8563;52.242;9.098;2023-07-28T03:33:27;1.30;;;1.20;;
16892;SDS011;8563;52.242;9.098;2023-07-28T03:36:02;2.67;;;1.15;;
16892;SDS011;8563;52.242;9.098;2023-07-28T03:41:35;1.35;;;1.25;;
16892;SDS011;8563;52.242;9.098;2023-07-28T03:44:08;1.23;;;1.13;;
16892;SDS011;8563;52.242;9.098;2023-07-28T03:46:41;1.35;;;1.20;;
16892;SDS011;8563;52.242;9.098;2023-07-28T03:49:18;1.42;;;1.30;;
16892;SDS011;8563;52.242;9.098;2023-07-28T03:51:51;2.95;;;1.30;;
16892;SDS011;8563;52.242;9.098;2023-07-28T03:54:24;1.40;;;1.30;;
16892;SDS011;8563;52.242;9.098;2023-07-28T03:56:59;1.80;;;1.70;;
16892;SDS011;8563;52.242;9.098;2023-07-28T03:59:35;2.10;;;1.75;;
16892;SDS011;8563;52.242;9.098;2023-07-28T04:02:07;2.05;;;1.90;;
16892;SDS011;8563;52.242;9.098;2023-07-28T04:04:45;3.00;;;2.20;;
16892;SDS011;8563;52.242;9.098;2023-07-28T04:07:18;2.40;;;2.20;;
16892;SDS011;8563;52.242;9.098;2023-07-28T04:09:51;2.53;;;2.33;;
16892;SDS011;8563;52.242;9.098;2023-07-28T04:12:24;2.70;;;2.38;;
16892;SDS011;8563;52.242;9.098;2023-07-28T04:14:57;2.65;;;2.25;;
16892;SDS011;8563;52.242;9.098;2023-07-28T04:17:30;3.17;;;2.83;;
16892;SDS011;8563;52.242;9.098;2023-07-28T04:20:08;2.53;;;2.33;;
16892;SDS011;8563;52.242;9.098;2023-07-28T04:22:42;4.93;;;3.60;;
16892;SDS011;8563;52.242;9.098;2023-07-28T04:25:15;3.42;;;3.03;;
16892;SDS011;8563;52.242;9.098;2023-07-28T04:27:51;2.88;;;2.67;;
16892;SDS011;8563;52.242;9.098;2023-07-28T04:30:25;3.65;;;3.38;;
16892;SDS011;8563;52.242;9.098;2023-07-28T04:32:59;3.45;;;3.25;;
16892;SDS011;8563;52.242;9.098;2023-07-28T04:35:40;3.92;;;3.63;;
16892;SDS011;8563;52.242;9.098;2023-07-28T04:38:23;4.45;;;3.92;;
16892;SDS011;8563;52.242;9.098;2023-07-28T04:41:01;7.67;;;3.47;;
16892;SDS011;8563;52.242;9.098;2023-07-28T04:43:51;6.75;;;4.47;;
16892;SDS011;8563;52.242;9.098;2023-07-28T04:46:28;5.30;;;3.83;;
16892;SDS011;8563;52.242;9.098;2023-07-28T04:49:03;5.22;;;3.38;;
16892;SDS011;8563;52.242;9.098;2023-07-28T04:51:56;3.40;;;3.10;;
16892;SDS011;8563;52.242;9.098;2023-07-28T04:55:04;3.85;;;2.90;;
16892;SDS011;8563;52.242;9.098;2023-07-28T04:57:40;3.95;;;3.55;;
16892;SDS011;8563;52.242;9.098;2023-07-28T05:00:15;4.80;;;3.78;;
16892;SDS011;8563;52.242;9.098;2023-07-28T05:02:48;4.93;;;4.53;;
16892;SDS011;8563;52.242;9.098;2023-07-28T05:05:21;5.38;;;3.65;;
16892;SDS011;8563;52.242;9.098;2023-07-28T05:07:56;4.13;;;3.80;;
16892;SDS011;8563;52.242;9.098;2023-07-28T05:10:30;4.93;;;4.43;;
16892;SDS011;8563;52.242;9.098;2023-07-28T05:13:03;5.15;;;4.40;;
16892;SDS011;8563;52.242;9.098;2023-07-28T05:15:36;4.95;;;4.55;;
16892;SDS011;8563;52.242;9.098;2023-07-28T05:18:12;4.00;;;3.70;;
16892;SDS011;8563;52.242;9.098;2023-07-28T05:21:02;4.80;;;4.30;;
16892;SDS011;8563;52.242;9.098;2023-07-28T05:23:36;5.55;;;4.18;;
16892;SDS011;8563;52.242;9.098;2023-07-28T05:26:09;4.60;;;4.20;;
16892;SDS011;8563;52.242;9.098;2023-07-28T05:28:44;4.40;;;4.00;;
16892;SDS011;8563;52.242;9.098;2023-07-28T05:31:21;5.63;;;5.13;;
16892;SDS011;8563;52.242;9.098;2023-07-28T05:33:57;4.80;;;4.40;;
16892;SDS011;8563;52.242;9.098;2023-07-28T05:36:30;4.57;;;4.28;;
16892;SDS011;8563;52.242;9.098;2023-07-28T05:39:07;5.82;;;5.25;;
16892;SDS011;8563;52.242;9.098;2023-07-28T05:41:45;6.45;;;4.68;;
16892;SDS011;8563;52.242;9.098;2023-07-28T05:44:19;4.97;;;4.40;;
16892;SDS011;8563;52.242;9.098;2023-07-28T05:46:52;4.90;;;4.50;;
16892;SDS011;8563;52.242;9.098;2023-07-28T05:49:26;5.90;;;5.32;;
16892;SDS011;8563;52.242;9.098;2023-07-28T05:51:59;4.85;;;4.45;;
16892;SDS011;8563;52.242;9.098;2023-07-28T05:54:36;4.68;;;4.32;;
16892;SDS011;8563;52.242;9.098;2023-07-28T05:57:08;5.43;;;4.13;;
16892;SDS011;8563;52.242;9.098;2023-07-28T05:59:41;5.90;;;5.22;;
16892;SDS011;8563;52.242;9.098;2023-07-28T06:02:15;5.45;;;4.85;;
16892;SDS011;8563;52.242;9.098;2023-07-28T06:05:06;5.25;;;4.50;;
16892;SDS011;8563;52.242;9.098;2023-07-28T06:07:41;6.03;;;5.53;;
16892;SDS011;8563;52.242;9.098;2023-07-28T06:10:16;5.32;;;4.80;;
16892;SDS011;8563;52.242;9.098;2023-07-28T06:12:50;5.45;;;4.97;;
16892;SDS011;8563;52.242;9.098;2023-07-28T06:15:29;5.30;;;4.80;;
16892;SDS011;8563;52.242;9.098;2023-07-28T06:18:05;5.43;;;4.63;;
16892;SDS011;8563;52.242;9.098;2023-07-28T06:20:37;6.38;;;5.78;;
16892;SDS011;8563;52.242;9.098;2023-07-28T06:23:10;6.05;;;5.13;;
16892;SDS011;8563;52.242;9.098;2023-07-28T06:25:45;5.18;;;4.78;;
16892;SDS011;8563;52.242;9.098;2023-07-28T06:28:17;5.22;;;4.72;;
16892;SDS011;8563;52.242;9.098;2023-07-28T06:30:53;4.22;;;3.92;;
16892;SDS011;8563;52.242;9.098;2023-07-28T06:33:27;5.18;;;4.68;;
16892;SDS011;8563;52.242;9.098;2023-07-28T06:36:01;4.60;;;4.30;;
16892;SDS011;8563;52.242;9.098;2023-07-28T06:38:34;4.40;;;3.72;;
16892;SDS011;8563;52.242;9.098;2023-07-28T06:41:10;3.70;;;3.40;;
16892;SDS011;8563;52.242;9.098;2023-07-28T06:43:44;3.80;;;3.50;;
16892;SDS011;8563;52.242;9.098;2023-07-28T06:46:20;3.47;;;3.15;;
16892;SDS011;8563;52.242;9.098;2023-07-28T06:48:56;5.25;;;3.72;;
16892;SDS011;8563;52.242;9.098;2023-07-28T06:51:33;3.20;;;3.00;;
16892;SDS011;8563;52.242;9.098;2023-07-28T06:54:07;4.50;;;3.28;;
16892;SDS011;8563;52.242;9.098;2023-07-28T06:56:45;3.67;;;3.30;;
16892;SDS011;8563;52.242;9.098;2023-07-28T06:59:19;3.17;;;2.85;;
16892;SDS011;8563;52.242;9.098;2023-07-28T07:01:52;6.30;;;3.22;;
16892;SDS011;8563;52.242;9.098;2023-07-28T07:04:25;2.97;;;2.72;;
16892;SDS011;8563;52.242;9.098;2023-07-28T07:07:00;3.05;;;2.80;;
16892;SDS011;8563;52.242;9.098;2023-07-28T07:09:33;3.17;;;2.60;;
16892;SDS011;8563;52.242;9.098;2023-07-28T07:12:13;2.50;;;2.30;;
16892;SDS011;8563;52.242;9.098;2023-07-28T07:14:53;4.88;;;2.53;;
16892;SDS011;8563;52.242;9.098;2023-07-28T07:17:27;9.00;;;2.30;;
16892;SDS011;8563;52.242;9.098;2023-07-28T07:20:01;3.03;;;2.03;;
16892;SDS011;8563;52.242;9.098;2023-07-28T07:22:34;2.83;;;2.53;;
16892;SDS011;8563;52.242;9.098;2023-07-28T07:25:10;1.95;;;1.85;;
16892;SDS011;8563;52.242;9.098;2023-07-28T07:27:46;2.42;;;2.22;;
16892;SDS011;8563;52.242;9.098;2023-07-28T07:30:19;3.38;;;1.95;;
16892;SDS011;8563;52.242;9.098;2023-07-28T07:32:54;2.15;;;1.95;;
16892;SDS011;8563;52.242;9.098;2023-07-28T07:35:27;1.80;;;1.70;;
16892;SDS011;8563;52.242;9.098;2023-07-28T07:38:00;5.00;;;2.53;;
16892;SDS011;8563;52.242;9.098;2023-07-28T07:40:34;2.45;;;2.17;;
16892;SDS011;8563;52.242;9.098;2023-07-28T07:43:16;1.92;;;1.83;;
16892;SDS011;8563;52.242;9.098;2023-07-28T07:45:51;2.40;;;2.20;;
16892;SDS011;8563;52.242;9.098;2023-07-28T07:48:25;2.58;;;2.10;;
16892;SDS011;8563;52.242;9.098;2023-07-28T07:50:59;3.55;;;2.10;;
16892;SDS011;8563;52.242;9.098;2023-07-28T07:53:33;1.92;;;1.83;;
16892;SDS011;8563;52.242;9.098;2023-07-28T07:56:08;3.35;;;1.95;;
16892;SDS011;8563;52.242;9.098;2023-07-28T07:58:43;2.10;;;1.90;;
16892;SDS011;8563;52.242;9.098;2023-07-28T08:01:16;2.60;;;2.17;;
16892;SDS011;8563;52.242;9.098;2023-07-28T08:03:51;4.07;;;2.38;;
16892;SDS011;8563;52.242;9.098;2023-07-28T08:06:24;1.73;;;1.63;;
16892;SDS011;8563;52.242;9.098;2023-07-28T08:08:59;1.90;;;1.80;;
16892;SDS011;8563;52.242;9.098;2023-07-28T08:11:33;1.73;;;1.63;;
16892;SDS011;8563;52.242;9.098;2023-07-28T08:14:09;2.03;;;1.83;;
16892;SDS011;8563;52.242;9.098;2023-07-28T08:16:44;1.95;;;1.80;;
16892;SDS011;8563;52.242;9.098;2023-07-28T08:19:18;2.58;;;1.70;;
16892;SDS011;8563;52.242;9.098;2023-07-28T08:21:52;1.98;;;1.67;;
16892;SDS011;8563;52.242;9.098;2023-07-28T08:24:29;1.65;;;1.55;;
16892;SDS011;8563;52.242;9.098;2023-07-28T08:27:02;3.00;;;1.77;;
16892;SDS011;8563;52.242;9.098;2023-07-28T08:29:38;2.42;;;1.73;;
16892;SDS011;8563;52.242;9.098;2023-07-28T08:32:11;1.67;;;1.58;;
16892;SDS011;8563;52.242;9.098;2023-07-28T08:34:45;1.55;;;1.45;;
16892;SDS011;8563;52.242;9.098;2023-07-28T08:37:18;1.90;;;1.80;;
16892;SDS011;8563;52.242;9.098;2023-07-28T08:39:54;3.25;;;1.63;;
16892;SDS011;8563;52.242;9.098;2023-07-28T08:42:30;2.17;;;1.73;;
16892;SDS011;8563;52.242;9.098;2023-07-28T08:45:13;2.42;;;2.22;;
16892;SDS011;8563;52.242;9.098;2023-07-28T08:47:51;2.00;;;1.85;;
16892;SDS011;8563;52.242;9.098;2023-07-28T08:50:24;2.40;;;1.77;;
16892;SDS011;8563;52.242;9.098;2023-07-28T08:53:05;1.90;;;1.80;;
16892;SDS011;8563;52.242;9.098;2023-07-28T08:55:43;2.75;;;1.90;;
16892;SDS011;8563;52.242;9.098;2023-07-28T08:58:18;2.03;;;1.92;;
16892;SDS011;8563;52.242;9.098;2023-07-28T09:01:06;1.90;;;1.80;;
16892;SDS011;8563;52.242;9.098;2023-07-28T09:03:51;2.10;;;1.92;;
16892;SDS011;8563;52.242;9.098;2023-07-28T09:06:28;2.05;;;1.95;;
16892;SDS011;8563;52.242;9.098;2023-07-28T09:09:02;3.25;;;1.77;;
16892;SDS011;8563;52.242;9.098;2023-07-28T09:11:48;1.90;;;1.80;;
16892;SDS011;8563;52.242;9.098;2023-07-28T09:14:25;1.80;;;1.67;;
16892;SDS011;8563;52.242;9.098;2023-07-28T09:17:07;2.08;;;1.70;;
16892;SDS011;8563;52.242;9.098;2023-07-28T09:19:50;2.40;;;1.75;;
16892;SDS011;8563;52.242;9.098;2023-07-28T09:22:25;3.95;;;1.75;;
16892;SDS011;8563;52.242;9.098;2023-07-28T09:24:58;1.98;;;1.88;;
16892;SDS011;8563;52.242;9.098;2023-07-28T09:27:51;2.92;;;1.67;;
16892;SDS011;8563;52.242;9.098;2023-07-28T09:30:26;1.75;;;1.65;;
16892;SDS011;8563;52.242;9.098;2023-07-28T09:33:09;1.98;;;1.73;;
16892;SDS011;8563;52.242;9.098;2023-07-28T09:35:49;1.50;;;1.40;;
16892;SDS011;8563;52.242;9.098;2023-07-28T09:38:23;1.65;;;1.40;;
16892;SDS011;8563;52.242;9.098;2023-07-28T09:40:58;1.63;;;1.40;;
16892;SDS011;8563;52.242;9.098;2023-07-28T09:43:31;2.65;;;2.03;;
16892;SDS011;8563;52.242;9.098;2023-07-28T09:46:06;2.50;;;2.13;;
16892;SDS011;8563;52.242;9.098;2023-07-28T09:48:45;2.45;;;1.70;;
16892;SDS011;8563;52.242;9.098;2023-07-28T09:51:33;1.90;;;1.80;;
16892;SDS011;8563;52.242;9.098;2023-07-28T09:54:10;2.67;;;1.48;;
16892;SDS011;8563;52.242;9.098;2023-07-28T09:56:48;2.05;;;1.90;;
16892;SDS011;8563;52.242;9.098;2023-07-28T09:59:22;2.35;;;2.10;;
16892;SDS011;8563;52.242;9.098;2023-07-28T10:01:58;2.58;;;1.95;;
16892;SDS011;8563;52.242;9.098;2023-07-28T10:04:33;1.90;;;1.75;;
16892;SDS011;8563;52.242;9.098;2023-07-28T10:07:06;2.10;;;1.90;;
16892;SDS011;8563;52.242;9.098;2023-07-28T10:09:40;2.47;;;1.60;;
16892;SDS011;8563;52.242;9.098;2023-07-28T10:12:17;1.90;;;1.80;;
16892;SDS011;8563;52.242;9.098;2023-07-28T10:15:01;3.92;;;1.63;;
16892;SDS011;8563;52.242;9.098;2023-07-28T10:17:35;1.92;;;1.73;;
16892;SDS011;8563;52.242;9.098;2023-07-28T10:25:57;2.15;;;1.75;;
16892;SDS011;8563;52.242;9.098;2023-07-28T10:28:31;1.70;;;1.60;;
16892;SDS011;8563;52.242;9.098;2023-07-28T10:31:09;2.47;;;1.83;;
16892;SDS011;8563;52.242;9.098;2023-07-28T10:33:43;2.53;;;2.20;;
16892;SDS011;8563;52.242;9.098;2023-07-28T10:36:17;2.05;;;1.85;;
16892;SDS011;8563;52.242;9.098;2023-07-28T10:38:59;4.40;;;1.90;;
16892;SDS011;8563;52.242;9.098;2023-07-28T10:41:42;2.80;;;2.38;;
16892;SDS011;8563;52.242;9.098;2023-07-28T10:44:33;2.10;;;1.90;;
16892;SDS011;8563;52.242;9.098;2023-07-28T10:47:10;2.13;;;1.80;;
16892;SDS011;8563;52.242;9.098;2023-07-28T10:49:44;4.22;;;1.77;;
16892;SDS011;8563;52.242;9.098;2023-07-28T10:52:23;3.35;;;2.13;;
16892;SDS011;8563;52.242;9.098;2023-07-28T10:54:56;2.55;;;1.70;;
16892;SDS011;8563;52.242;9.098;2023-07-28T10:57:32;3.55;;;1.92;;
16892;SDS011;8563;52.242;9.098;2023-07-28T11:00:07;2.35;;;1.90;;
16892;SDS011;8563;52.242;9.098;2023-07-28T11:02:45;2.00;;;1.70;;
16892;SDS011;8563;52.242;9.098;2023-07-28T11:05:21;1.70;;;1.60;;
16892;SDS011;8563;52.242;9.098;2023-07-28T11:07:54;1.98;;;1.80;;
16892;SDS011;8563;52.242;9.098;2023-07-28T11:10:29;2.67;;;1.50;;
16892;SDS011;8563;52.242;9.098;2023-07-28T11:13:12;1.92;;;1.83;;
16892;SDS011;8563;52.242;9.098;2023-07-28T11:15:50;1.83;;;1.60;;
16892;SDS011;8563;52.242;9.098;2023-07-28T11:18:25;3.03;;;1.90;;
16892;SDS011;8563;52.242;9.098;2023-07-28T11:21:00;1.85;;;1.65;;
16892;SDS011;8563;52.242;9.098;2023-07-28T11:23:33;1.98;;;1.80;;
16892;SDS011;8563;52.242;9.098;2023-07-28T11:26:10;1.88;;;1.75;;
16892;SDS011;8563;52.242;9.098;2023-07-28T11:28:48;2.30;;;2.10;;
16892;SDS011;8563;52.242;9.098;2023-07-28T11:31:25;1.80;;;1.70;;
16892;SDS011;8563;52.242;9.098;2023-07-28T11:34:00;2.33;;;1.63;;
16892;SDS011;8563;52.242;9.098;2023-07-28T11:36:34;3.03;;;2.05;;
16892;SDS011;8563;52.242;9.098;2023-07-28T11:39:11;1.77;;;1.67;;
16892;SDS011;8563;52.242;9.098;2023-07-28T11:41:48;2.15;;;1.95;;
16892;SDS011;8563;52.242;9.098;2023-07-28T11:44:31;1.95;;;1.85;;
16892;SDS011;8563;52.242;9.098;2023-07-28T11:47:17;1.90;;;1.80;;
16892;SDS011;8563;52.242;9.098;2023-07-28T11:50:00;1.98;;;1.88;;
16892;SDS011;8563;52.242;9.098;2023-07-28T11:52:34;2.92;;;2.60;;
16892;SDS011;8563;52.242;9.098;2023-07-28T11:55:13;2.15;;;1.95;;
16892;SDS011;8563;52.242;9.098;2023-07-28T11:57:48;2.88;;;2.22;;
16892;SDS011;8563;52.242;9.098;2023-07-28T12:00:33;3.97;;;2.30;;
16892;SDS011;8563;52.242;9.098;2023-07-28T12:03:06;2.35;;;2.15;;
16892;SDS011;8563;52.242;9.098;2023-07-28T12:06:05;2.08;;;1.88;;
16892;SDS011;8563;52.242;9.098;2023-07-28T12:08:46;2.42;;;2.22;;
16892;SDS011;8563;52.242;9.098;2023-07-28T12:11:31;2.30;;;2.20;;
16892;SDS011;8563;52.242;9.098;2023-07-28T12:14:10;2.63;;;2.42;;
16892;SDS011;8563;52.242;9.098;2023-07-28T12:16:53;2.65;;;2.45;;
16892;SDS011;8563;52.242;9.098;2023-07-28T12:19:25;2.65;;;2.45;;
16892;SDS011;8563;52.242;9.098;2023-07-28T12:22:03;2.53;;;2.33;;
16892;SDS011;8563;52.242;9.098;2023-07-28T12:24:39;2.50;;;2.30;;
16892;SDS011;8563;52.242;9.098;2023-07-28T12:27:12;2.40;;;2.20;;
16892;SDS011;8563;52.242;9.098;2023-07-28T12:29:46;2.85;;;2.40;;
16892;SDS011;8563;52.242;9.098;2023-07-28T12:32:22;3.67;;;2.40;;
16892;SDS011;8563;52.242;9.098;2023-07-28T12:34:55;2.50;;;2.30;;
16892;SDS011;8563;52.242;9.098;2023-07-28T12:37:30;2.75;;;2.38;;
16892;SDS011;8563;52.242;9.098;2023-07-28T12:40:03;2.25;;;2.15;;
16892;SDS011;8563;52.242;9.098;2023-07-28T12:42:39;2.33;;;2.13;;
16892;SDS011;8563;52.242;9.098;2023-07-28T12:45:12;3.78;;;2.30;;
16892;SDS011;8563;52.242;9.098;2023-07-28T12:47:48;3.25;;;2.55;;
16892;SDS011;8563;52.242;9.098;2023-07-28T12:50:21;2.83;;;2.60;;
16892;SDS011;8563;52.242;9.098;2023-07-28T12:52:55;2.55;;;2.35;;
16892;SDS011;8563;52.242;9.098;2023-07-28T12:55:28;2.80;;;2.40;;
16892;SDS011;8563;52.242;9.098;2023-07-28T12:58:02;3.88;;;2.80;;
16892;SDS011;8563;52.242;9.098;2023-07-28T13:00:36;2.38;;;2.00;;
16892;SDS011;8563;52.242;9.098;2023-07-28T13:03:13;2.40;;;2.20;;
16892;SDS011;8563;52.242;9.098;2023-07-28T13:05:47;3.35;;;2.20;;
16892;SDS011;8563;52.242;9.098;2023-07-28T13:08:23;2.70;;;2.30;;
16892;SDS011;8563;52.242;9.098;2023-07-28T13:11:04;2.78;;;2.53;;
16892;SDS011;8563;52.242;9.098;2023-07-28T13:13:38;2.67;;;2.47;;
16892;SDS011;8563;52.242;9.098;2023-07-28T13:16:19;2.25;;;2.05;;
16892;SDS011;8563;52.242;9.098;2023-07-28T13:18:53;2.72;;;2.25;;
16892;SDS011;8563;52.242;9.098;2023-07-28T13:21:29;2.60;;;2.40;;
16892;SDS011;8563;52.242;9.098;2023-07-28T13:24:02;2.00;;;1.85;;
16892;SDS011;8563;52.242;9.098;2023-07-28T13:26:40;2.47;;;2.28;;
16892;SDS011;8563;52.242;9.098;2023-07-28T13:29:14;4.35;;;2.22;;
16892;SDS011;8563;52.242;9.098;2023-07-28T13:31:48;2.50;;;2.30;;
16892;SDS011;8563;52.242;9.098;2023-07-28T13:34:27;3.33;;;2.35;;
16892;SDS011;8563;52.242;9.098;2023-07-28T13:37:03;2.85;;;2.65;;
16892;SDS011;8563;52.242;9.098;2023-07-28T13:39:36;2.55;;;2.35;;
16892;SDS011;8563;52.242;9.098;2023-07-28T13:42:22;2.33;;;2.13;;
16892;SDS011;8563;52.242;9.098;2023-07-28T13:44:56;3.05;;;2.33;;
16892;SDS011;8563;52.242;9.098;2023-07-28T13:47:29;2.80;;;2.60;;
16892;SDS011;8563;52.242;9.098;2023-07-28T13:50:04;2.63;;;2.38;;
16892;SDS011;8563;52.242;9.098;2023-07-28T13:52:39;2.85;;;2.47;;
16892;SDS011;8563;52.242;9.098;2023-07-28T13:55:12;2.60;;;2.40;;
16892;SDS011;8563;52.242;9.098;2023-07-28T13:57:47;2.78;;;2.58;;
16892;SDS011;8563;52.242;9.098;2023-07-28T14:00:20;2.55;;;2.33;;
16892;SDS011;8563;52.242;9.098;2023-07-28T14:02:54;2.53;;;2.33;;
16892;SDS011;8563;52.242;9.098;2023-07-28T14:05:30;2.60;;;2.30;;
16892;SDS011;8563;52.242;9.098;2023-07-28T14:08:22;2.40;;;2.20;;
16892;SDS011;8563;52.242;9.098;2023-07-28T14:10:57;3.17;;;2.25;;
16892;SDS011;8563;52.242;9.098;2023-07-28T14:13:32;2.30;;;2.10;;
16892;SDS011;8563;52.242;9.098;2023-07-28T14:16:05;2.72;;;2.53;;
16892;SDS011;8563;52.242;9.098;2023-07-28T14:18:40;2.75;;;2.40;;
16892;SDS011;8563;52.242;9.098;2023-07-28T14:21:14;2.42;;;2.22;;
16892;SDS011;8563;52.242;9.098;2023-07-28T14:23:49;2.58;;;2.22;;
16892;SDS011;8563;52.242;9.098;2023-07-28T14:26:22;2.42;;;2.22;;
16892;SDS011;8563;52.242;9.098;2023-07-28T14:28:57;2.45;;;2.30;;
16892;SDS011;8563;52.242;9.098;2023-07-28T14:31:30;2.17;;;1.98;;
16892;SDS011;8563;52.242;9.098;2023-07-28T14:34:03;2.75;;;2.30;;
16892;SDS011;8563;52.242;9.098;2023-07-28T14:36:41;3.05;;;2.33;;
16892;SDS011;8563;52.242;9.098;2023-07-28T14:39:18;2.47;;;2.28;;
16892;SDS011;8563;52.242;9.098;2023-07-28T14:41:51;2.85;;;2.25;;
16892;SDS011;8563;52.242;9.098;2023-07-28T14:44:25;2.30;;;2.10;;
16892;SDS011;8563;52.242;9.098;2023-07-28T14:46:58;2.50;;;2.10;;
16892;SDS011;8563;52.242;9.098;2023-07-28T14:49:31;2.00;;;1.90;;
16892;SDS011;8563;52.242;9.098;2023-07-28T14:52:08;2.13;;;2.03;;
16892;SDS011;8563;52.242;9.098;2023-07-28T14:54:45;2.70;;;2.50;;
16892;SDS011;8563;52.242;9.098;2023-07-28T14:57:19;2.42;;;2.22;;
16892;SDS011;8563;52.242;9.098;2023-07-28T14:59:52;2.50;;;2.30;;
16892;SDS011;8563;52.242;9.098;2023-07-28T15:02:28;2.78;;;2.58;;
16892;SDS011;8563;52.242;9.098;2023-07-28T15:05:01;4.90;;;2.60;;
16892;SDS011;8563;52.242;9.098;2023-07-28T15:07:37;2.60;;;2.40;;
16892;SDS011;8563;52.242;9.098;2023-07-28T15:10:19;2.78;;;2.58;;
16892;SDS011;8563;52.242;9.098;2023-07-28T15:13:05;4.47;;;2.88;;
16892;SDS011;8563;52.242;9.098;2023-07-28T15:15:40;3.13;;;2.83;;
16892;SDS011;8563;52.242;9.098;2023-07-28T15:18:14;3.20;;;2.90;;
16892;SDS011;8563;52.242;9.098;2023-07-28T15:20:48;2.80;;;2.60;;
16892;SDS011;8563;52.242;9.098;2023-07-28T15:23:24;3.30;;;3.10;;
16892;SDS011;8563;52.242;9.098;2023-07-28T15:25:57;3.05;;;2.85;;
16892;SDS011;8563;52.242;9.098;2023-07-28T15:28:32;3.65;;;3.13;;
16892;SDS011;8563;52.242;9.098;2023-07-28T15:34:17;3.55;;;3.25;;
16892;SDS011;8563;52.242;9.098;2023-07-28T15:36:51;3.17;;;2.90;;
16892;SDS011;8563;52.242;9.098;2023-07-28T15:39:31;3.20;;;3.00;;
16892;SDS011;8563;52.242;9.098;2023-07-28T15:42:05;3.58;;;3.28;;
16892;SDS011;8563;52.242;9.098;2023-07-28T15:44:42;3.55;;;3.25;;
16892;SDS011;8563;52.242;9.098;2023-07-28T15:47:16;3.03;;;2.83;;
16892;SDS011;8563;52.242;9.098;2023-07-28T15:49:50;3.05;;;2.85;;
16892;SDS011;8563;52.242;9.098;2023-07-28T15:52:25;3.80;;;3.50;;
16892;SDS011;8563;52.242;9.098;2023-07-28T15:55:22;3.40;;;3.10;;
16892;SDS011;8563;52.242;9.098;2023-07-28T15:57:55;3.33;;;3.05;;
16892;SDS011;8563;52.242;9.098;2023-07-28T16:00:29;3.38;;;3.15;;
16892;SDS011;8563;52.242;9.098;2023-07-28T16:03:03;3.60;;;3.30;;
16892;SDS011;8563;52.242;9.098;2023-07-28T16:05:35;3.40;;;3.10;;
16892;SDS011;8563;52.242;9.098;2023-07-28T16:08:10;4.13;;;3.40;;
16892;SDS011;8563;52.242;9.098;2023-07-28T16:10:48;3.35;;;3.15;;